San Francisco, California
Current Conditions -  °F | °C
As of 7:56 AM on Friday 24 Oct 2014 (Local Time) from KSFO Reporting Station
Few Clouds Few Clouds  
Wind Chill: 61°   Ceiling: Unl
Heat Index: 61°   Visibility: 10mi
Dew Point: 56°   Wind: 6mph
Humidity: 83%   Direction: 160°SSE
Pressure: 29.96"   Gusts: NA
Location:  37.78°N, 122.42°W
Report Text: KSFO 241456Z 16005KT 10SM FEW010 16/13 A2996 RMK AO2 SLP144 T01610133 53002 $
Loading
Personal Weather Stations






























Interactive Weather Map
Tropical Storm Tracking
New forecast layout! Learn more

10-Day Weather Forecast

Advertisements
Track Severe Weather on mobile